Time;durP1;ratioP1;P1;durP2;ratioP2;P2;SDS_P1;SDS_P2;PMS_P1;PMS_P2;Temp;Humidity;BMP_temperature;BMP_pressure;BME280_temperature;BME280_humidity;BME280_pressure;Samples;Min_cycle;Max_cycle;Signal;HPM_P1;HPM_P2
2022/04/01 00:02:48;;;;;;;186.73;44.80;;;;;;;;;;6287866;28;20415;-75
2022/04/01 00:05:51;;;;;;;178.93;44.42;;;;;;;;;;6290288;28;20165;-75
2022/04/01 00:08:54;;;;;;;153.30;42.00;;;;;;;;;;6289504;28;20445;-75
2022/04/01 00:11:58;;;;;;;150.48;43.03;;;;;;;;;;6290611;28;20044;-75
2022/04/01 00:15:02;;;;;;;185.90;45.28;;;;;;;;;;6290892;28;20051;-75
2022/04/01 00:18:05;;;;;;;253.90;46.55;;;;;;;;;;6290362;28;20041;-75
2022/04/01 00:21:11;;;;;;;210.27;45.20;;;;;;;;;;6290706;28;20052;-75
2022/04/01 00:24:14;;;;;;;152.32;41.92;;;;;;;;;;6290986;28;20048;-75
2022/04/01 00:27:19;;;;;;;190.43;45.40;;;;;;;;;;6290749;28;20052;-75
2022/04/01 00:30:22;;;;;;;166.50;42.90;;;;;;;;;;6290336;28;20054;-75
2022/04/01 00:33:25;;;;;;;141.05;42.10;;;;;;;;;;6289802;28;20098;-75
2022/04/01 00:36:28;;;;;;;169.05;44.53;;;;;;;;;;6294634;28;20053;-75
2022/04/01 00:39:31;;;;;;;144.77;43.78;;;;;;;;;;6294882;28;20045;-75
2022/04/01 00:42:38;;;;;;;143.30;41.83;;;;;;;;;;6295062;28;20501;-75
2022/04/01 00:45:41;;;;;;;130.98;41.75;;;;;;;;;;6295514;28;20524;-75
2022/04/01 00:48:47;;;;;;;142.57;44.58;;;;;;;;;;6295181;28;20051;-75
2022/04/01 00:51:51;;;;;;;169.05;46.45;;;;;;;;;;6296267;28;20101;-75
2022/04/01 00:54:54;;;;;;;159.40;43.70;;;;;;;;;;6294036;28;20480;-75
2022/04/01 00:58:00;;;;;;;136.30;42.65;;;;;;;;;;6296263;28;20041;-75
2022/04/01 01:01:04;;;;;;;118.07;40.47;;;;;;;;;;6294534;28;20493;-75
2022/04/01 01:04:08;;;;;;;106.90;40.00;;;;;;;;;;6294547;28;20048;-75
2022/04/01 01:07:20;;;;;;;116.85;38.42;;;;;;;;;;6295633;28;20061;-75
2022/04/01 01:10:23;;;;;;;101.40;36.72;;;;;;;;;;6295873;28;20052;-75
2022/04/01 01:13:27;;;;;;;83.50;35.67;;;;;;;;;;6295708;28;20410;-75
2022/04/01 01:16:31;;;;;;;85.85;34.00;;;;;;;;;;6293757;28;20441;-75
2022/04/01 01:19:34;;;;;;;77.05;33.60;;;;;;;;;;6294641;28;20048;-75
2022/04/01 01:22:37;;;;;;;92.78;33.70;;;;;;;;;;6293848;28;20045;-75
2022/04/01 01:25:42;;;;;;;79.20;33.63;;;;;;;;;;6294431;28;20131;-75
2022/04/01 01:28:45;;;;;;;87.53;34.05;;;;;;;;;;6293830;28;20044;-75
2022/04/01 01:31:51;;;;;;;;;;;;;;;;;;6294706;28;20068;-75
2022/04/01 01:34:54;;;;;;;74.60;31.17;;;;;;;;;;6291989;28;19986;-75
2022/04/01 01:37:57;;;;;;;81.80;31.60;;;;;;;;;;6290869;28;20182;-74
2022/04/01 01:41:02;;;;;;;73.15;31.35;;;;;;;;;;6292448;28;20060;-75
2022/04/01 01:44:05;;;;;;;83.40;30.30;;;;;;;;;;6292456;28;20045;-75
2022/04/01 01:47:09;;;;;;;91.63;31.52;;;;;;;;;;6290475;28;20056;-75
2022/04/01 01:57:06;;;;;;;123.05;33.65;;;;;;;;;;6292921;28;20137;-74
2022/04/01 02:00:11;;;;;;;87.22;32.85;;;;;;;;;;6292756;28;20048;-74
2022/04/01 02:03:14;;;;;;;87.47;33.17;;;;;;;;;;6292900;28;20052;-74
2022/04/01 02:06:17;;;;;;;90.30;32.25;;;;;;;;;;6292249;28;20067;-75
2022/04/01 02:09:21;;;;;;;123.97;32.33;;;;;;;;;;6293304;28;20041;-74
2022/04/01 02:12:30;;;;;;;94.03;31.25;;;;;;;;;;6291806;28;20051;-74
2022/04/01 02:15:33;;;;;;;89.35;30.63;;;;;;;;;;6292109;28;20048;-75
2022/04/01 02:18:39;;;;;;;78.35;30.13;;;;;;;;;;6293506;28;20045;-75
2022/04/01 02:21:43;;;;;;;83.13;29.02;;;;;;;;;;6292444;28;20048;-75
2022/04/01 02:24:50;;;;;;;73.77;27.47;;;;;;;;;;6292653;28;20041;-75
2022/04/01 02:27:55;;;;;;;95.80;30.52;;;;;;;;;;6294076;28;20441;-75
2022/04/01 02:31:01;;;;;;;122.97;32.22;;;;;;;;;;6292808;28;20125;-75
2022/04/01 02:34:24;;;;;;;90.30;29.67;;;;;;;;;;6293200;28;20053;-76
2022/04/01 02:37:27;;;;;;;81.43;28.85;;;;;;;;;;6292654;28;20048;-77
2022/04/01 02:40:33;;;;;;;97.25;30.92;;;;;;;;;;6292120;28;20063;-77
2022/04/01 02:43:37;;;;;;;89.00;29.27;;;;;;;;;;6293368;28;20044;-76
2022/04/01 02:46:44;;;;;;;71.25;27.52;;;;;;;;;;6291718;28;20052;-77
2022/04/01 02:49:47;;;;;;;100.57;29.58;;;;;;;;;;6292187;28;20052;-78
2022/04/01 02:52:50;;;;;;;103.22;31.63;;;;;;;;;;6291987;28;20055;-78
2022/04/01 02:55:56;;;;;;;81.88;29.25;;;;;;;;;;6291176;28;20052;-79
2022/04/01 02:59:00;;;;;;;70.35;26.33;;;;;;;;;;6291875;28;20410;-78
2022/04/01 03:02:04;;;;;;;68.60;26.33;;;;;;;;;;6291508;28;20047;-78
2022/04/01 03:05:08;;;;;;;76.95;27.05;;;;;;;;;;6291212;28;20063;-78
2022/04/01 03:08:12;;;;;;;70.17;25.43;;;;;;;;;;6291119;28;20052;-78
2022/04/01 03:11:16;;;;;;;66.85;25.98;;;;;;;;;;6292660;28;20037;-78
2022/04/01 03:14:22;;;;;;;60.80;25.20;;;;;;;;;;6291379;28;20482;-79
2022/04/01 03:18:01;;;;;;;55.13;24.50;;;;;;;;;;6284074;28;20059;-79
2022/04/01 03:21:11;;;;;;;73.90;25.77;;;;;;;;;;6290798;28;20126;-79
2022/04/01 03:24:19;;;;;;;69.00;26.10;;;;;;;;;;6291258;28;20388;-79
2022/04/01 03:27:24;;;;;;;;;;;;;;;;;;6291932;28;20105;-79
2022/04/01 03:30:29;;;;;;;57.03;24.23;;;;;;;;;;6290349;28;19920;-79
2022/04/01 03:33:33;;;;;;;66.88;26.05;;;;;;;;;;6292096;28;20076;-79
2022/04/01 03:36:39;;;;;;;60.08;24.75;;;;;;;;;;6288877;28;20051;-78
2022/04/01 03:39:45;;;;;;;70.95;26.08;;;;;;;;;;6289940;28;20536;-77
2022/04/01 03:42:52;;;;;;;69.10;25.67;;;;;;;;;;6289339;28;20509;-80
2022/04/01 03:45:59;;;;;;;79.47;26.67;;;;;;;;;;6290524;28;20052;-80
2022/04/01 03:49:07;;;;;;;62.17;26.92;;;;;;;;;;6289219;28;20077;-78
2022/04/01 03:52:13;;;;;;;83.07;28.48;;;;;;;;;;6288598;28;20440;-79
2022/04/01 03:55:17;;;;;;;70.40;27.73;;;;;;;;;;6290644;28;20322;-78
2022/04/01 03:58:45;;;;;;;61.67;25.38;;;;;;;;;;6290613;28;20044;-77
2022/04/01 04:02:08;;;;;;;59.20;25.17;;;;;;;;;;6290893;28;20127;-77
2022/04/01 04:05:11;;;;;;;;;;;;;;;;;;6290801;28;20513;-77
2022/04/01 04:08:17;;;;;;;62.47;22.80;;;;;;;;;;6288706;28;19943;-76
2022/04/01 04:11:23;;;;;;;60.80;23.65;;;;;;;;;;6288473;28;20040;-76
2022/04/01 04:14:36;;;;;;;;;;;;;;;;;;6290594;28;20486;-76
2022/04/01 04:17:45;;;;;;;47.22;21.13;;;;;;;;;;6286248;28;20278;-76
2022/04/01 04:21:05;;;;;;;42.50;20.65;;;;;;;;;;6288721;28;20165;-75
2022/04/01 04:24:17;;;;;;;42.30;20.63;;;;;;;;;;6288258;28;20414;-77
2022/04/01 04:27:26;;;;;;;28.50;16.38;;;;;;;;;;6288264;28;20414;-77
2022/04/01 04:30:34;;;;;;;40.28;17.60;;;;;;;;;;6287977;28;20053;-77
2022/04/01 04:34:02;;;;;;;22.20;13.10;;;;;;;;;;6289866;28;20054;-76
2022/04/01 04:37:12;;;;;;;28.95;15.45;;;;;;;;;;6289909;28;20289;-77
2022/04/01 04:40:21;;;;;;;28.35;15.63;;;;;;;;;;6289730;28;20051;-76
2022/04/01 04:43:38;;;;;;;32.58;15.98;;;;;;;;;;6289467;28;20505;-75
2022/04/01 04:46:42;;;;;;;28.88;15.50;;;;;;;;;;6289994;28;20048;-75
2022/04/01 04:49:47;;;;;;;31.90;15.75;;;;;;;;;;6290202;28;20049;-75
2022/04/01 04:52:54;;;;;;;24.67;14.30;;;;;;;;;;6289518;28;20041;-77
2022/04/01 04:55:59;;;;;;;25.73;14.27;;;;;;;;;;6291093;28;20106;-77
2022/04/01 04:59:06;;;;;;;30.98;16.27;;;;;;;;;;6290095;28;20048;-77
2022/04/01 05:02:11;;;;;;;23.90;14.13;;;;;;;;;;6289884;28;20045;-77
2022/04/01 05:05:23;;;;;;;25.92;15.10;;;;;;;;;;6289579;28;20040;-75
2022/04/01 05:09:00;;;;;;;49.38;19.67;;;;;;;;;;6254708;28;20052;-77
2022/04/01 05:12:26;;;;;;;63.58;21.88;;;;;;;;;;6291218;28;20056;-76
2022/04/01 05:16:02;;;;;;;48.33;21.15;;;;;;;;;;6285440;28;20056;-77
2022/04/01 05:19:10;;;;;;;43.65;19.65;;;;;;;;;;6289581;28;20040;-76
2022/04/01 05:22:19;;;;;;;51.83;21.15;;;;;;;;;;6291669;28;20051;-76
2022/04/01 05:25:31;;;;;;;41.25;19.30;;;;;;;;;;6294011;28;20055;-77
2022/04/01 05:28:40;;;;;;;46.20;20.35;;;;;;;;;;6294372;28;20044;-76
2022/04/01 05:31:48;;;;;;;48.70;21.83;;;;;;;;;;6293363;28;20045;-76
2022/04/01 05:34:52;;;;;;;50.85;20.40;;;;;;;;;;6293121;28;20048;-77
2022/04/01 05:37:57;;;;;;;55.55;21.65;;;;;;;;;;6291646;28;20036;-77
2022/04/01 05:41:00;;;;;;;43.30;20.27;;;;;;;;;;6293565;28;20070;-76
2022/04/01 05:44:05;;;;;;;40.50;19.48;;;;;;;;;;6291988;28;20041;-78
2022/04/01 05:47:17;;;;;;;38.00;18.73;;;;;;;;;;6291053;28;20064;-77
2022/04/01 05:50:20;;;;;;;43.33;19.80;;;;;;;;;;6291923;28;20059;-78
2022/04/01 05:53:25;;;;;;;48.72;19.33;;;;;;;;;;6292741;28;20041;-77
2022/04/01 05:56:32;;;;;;;39.30;18.63;;;;;;;;;;6275920;28;20044;-77
2022/04/01 05:59:35;;;;;;;39.60;18.92;;;;;;;;;;6291996;28;20094;-77
2022/04/01 06:02:52;;;;;;;36.88;19.05;;;;;;;;;;6292465;28;20051;-77
2022/04/01 06:05:57;;;;;;;43.03;19.20;;;;;;;;;;6291637;28;20121;-77
2022/04/01 06:09:05;;;;;;;36.45;16.73;;;;;;;;;;6291198;28;20049;-76
2022/04/01 06:12:50;;;;;;;37.03;17.35;;;;;;;;;;6263677;28;20085;-75
2022/04/01 06:16:16;;;;;;;18.50;11.27;;;;;;;;;;6267561;28;20045;-78
2022/04/01 06:19:35;;;;;;;19.48;10.43;;;;;;;;;;6291205;28;20449;-76
2022/04/01 06:22:44;;;;;;;19.75;10.13;;;;;;;;;;6293298;28;20048;-77
2022/04/01 06:25:55;;;;;;;18.52;10.15;;;;;;;;;;6292508;28;20445;-76
2022/04/01 06:29:14;;;;;;;18.08;9.15;;;;;;;;;;6292730;28;20406;-77
2022/04/01 06:32:22;;;;;;;17.30;9.15;;;;;;;;;;6291253;28;20053;-77
2022/04/01 06:35:28;;;;;;;18.60;9.75;;;;;;;;;;6292559;28;20506;-77
2022/04/01 06:38:48;;;;;;;17.23;9.40;;;;;;;;;;6292083;28;20055;-76
2022/04/01 06:41:55;;;;;;;17.55;9.32;;;;;;;;;;6293736;28;20052;-75
2022/04/01 06:45:16;;;;;;;13.82;6.97;;;;;;;;;;6292686;28;20044;-76
2022/04/01 06:48:39;;;;;;;15.00;7.22;;;;;;;;;;6293513;28;20044;-75
2022/04/01 06:52:15;;;;;;;18.58;6.90;;;;;;;;;;6270009;28;20056;-75
2022/04/01 06:55:38;;;;;;;8.30;5.35;;;;;;;;;;6281260;28;20056;-75
2022/04/01 06:59:05;;;;;;;9.77;4.78;;;;;;;;;;6291813;28;20041;-76
2022/04/01 07:02:08;;;;;;;13.45;5.18;;;;;;;;;;6292861;28;20052;-77
2022/04/01 07:05:11;;;;;;;7.45;4.03;;;;;;;;;;6291601;28;20036;-78
2022/04/01 07:08:16;;;;;;;10.10;4.72;;;;;;;;;;6292728;28;20051;-81
2022/04/01 07:11:21;;;;;;;8.80;4.47;;;;;;;;;;6290218;28;20044;-82
2022/04/01 07:14:27;;;;;;;6.75;3.47;;;;;;;;;;6293306;28;20052;-82
2022/04/01 07:17:30;;;;;;;8.60;3.33;;;;;;;;;;6292911;28;20053;-80
2022/04/01 07:20:34;;;;;;;7.78;3.70;;;;;;;;;;6291151;28;20439;-81
2022/04/01 07:23:37;;;;;;;7.43;4.30;;;;;;;;;;6292339;28;20045;-83
2022/04/01 07:26:41;;;;;;;4.75;2.80;;;;;;;;;;6291407;28;20052;-81
2022/04/01 07:29:46;;;;;;;9.30;2.88;;;;;;;;;;6291050;28;20036;-82
2022/04/01 07:32:54;;;;;;;7.57;2.72;;;;;;;;;;6291439;28;20502;-81
2022/04/01 07:35:58;;;;;;;4.03;2.20;;;;;;;;;;6291316;28;20047;-81
2022/04/01 07:39:00;;;;;;;3.65;2.03;;;;;;;;;;6289375;28;20229;-81
2022/04/01 07:42:05;;;;;;;3.95;1.58;;;;;;;;;;6289141;28;20048;-81
2022/04/01 07:45:10;;;;;;;1.27;1.17;;;;;;;;;;6287368;28;20066;-80
2022/04/01 07:48:14;;;;;;;1.33;1.23;;;;;;;;;;6289687;28;20101;-81
2022/04/01 07:51:17;;;;;;;3.42;1.40;;;;;;;;;;6290707;28;20047;-79
2022/04/01 07:54:21;;;;;;;5.70;1.60;;;;;;;;;;6288623;28;20089;-81
2022/04/01 07:57:26;;;;;;;3.28;1.70;;;;;;;;;;6290211;28;20411;-81
2022/04/01 08:00:31;;;;;;;3.92;1.80;;;;;;;;;;6288013;28;20045;-81
2022/04/01 08:03:34;;;;;;;4.57;2.10;;;;;;;;;;6289754;28;20045;-81
2022/04/01 08:06:37;;;;;;;2.40;1.95;;;;;;;;;;6290715;28;20044;-80
2022/04/01 08:09:40;;;;;;;3.30;2.35;;;;;;;;;;6289160;28;20513;-79
2022/04/01 08:12:44;;;;;;;5.93;2.55;;;;;;;;;;6291022;28;20045;-79
2022/04/01 08:15:51;;;;;;;9.00;3.10;;;;;;;;;;6289614;28;20049;-79
2022/04/01 08:18:54;;;;;;;8.40;3.07;;;;;;;;;;6290908;28;20398;-79
2022/04/01 08:22:00;;;;;;;3.63;2.90;;;;;;;;;;6291584;28;20048;-79
2022/04/01 08:25:06;;;;;;;3.25;2.60;;;;;;;;;;6289545;28;20048;-79
2022/04/01 08:28:09;;;;;;;3.63;2.92;;;;;;;;;;6290405;28;20467;-79
2022/04/01 08:31:14;;;;;;;28.52;17.05;;;;;;;;;;6290048;28;20048;-79
2022/04/01 08:34:17;;;;;;;8.38;4.68;;;;;;;;;;6290118;28;20071;-79
2022/04/01 08:37:20;;;;;;;4.13;3.00;;;;;;;;;;6289357;28;20049;-78
2022/04/01 08:40:29;;;;;;;5.45;3.15;;;;;;;;;;6291615;28;20090;-78
2022/04/01 08:43:32;;;;;;;;;;;;;;;;;;6291854;28;20056;-78
2022/04/01 08:46:37;;;;;;;3.90;2.75;;;;;;;;;;6289114;28;19920;-78
2022/04/01 08:49:40;;;;;;;5.07;3.03;;;;;;;;;;6290276;28;20048;-79
2022/04/01 08:52:43;;;;;;;8.30;3.40;;;;;;;;;;6289577;28;20056;-78
2022/04/01 08:55:47;;;;;;;4.63;2.70;;;;;;;;;;6290672;28;20048;-78
2022/04/01 08:58:53;;;;;;;9.32;3.30;;;;;;;;;;6294238;28;20083;-78
2022/04/01 09:02:04;;;;;;;7.72;3.22;;;;;;;;;;6296205;28;20395;-78
2022/04/01 09:05:08;;;;;;;4.93;3.30;;;;;;;;;;6317541;28;20044;-80
2022/04/01 09:08:14;;;;;;;3.38;2.80;;;;;;;;;;6317792;28;20044;-82
2022/04/01 09:11:18;;;;;;;12.63;5.07;;;;;;;;;;6319170;28;20111;-84
2022/04/01 09:14:22;;;;;;;5.63;2.88;;;;;;;;;;6320506;28;20052;-86
2022/04/01 09:17:40;;;;;;;2.78;2.42;;;;;;;;;;6319112;28;20460;-85
2022/04/01 09:20:48;;;;;;;9.85;6.20;;;;;;;;;;6319787;28;20048;-85
2022/04/01 09:23:51;;;;;;;19.73;10.85;;;;;;;;;;6319464;28;20036;-86
2022/04/01 09:26:55;;;;;;;11.30;3.90;;;;;;;;;;6319081;28;20048;-85
2022/04/01 09:29:59;;;;;;;3.25;2.85;;;;;;;;;;6318407;28;20047;-86
2022/04/01 09:33:06;;;;;;;4.03;2.17;;;;;;;;;;6319450;28;20052;-85
2022/04/01 09:36:12;;;;;;;2.17;1.90;;;;;;;;;;6319081;28;20131;-86
2022/04/01 09:39:16;;;;;;;6.30;2.80;;;;;;;;;;6317047;28;20044;-85
2022/04/01 09:42:20;;;;;;;2.97;2.65;;;;;;;;;;6315896;28;20036;-86
2022/04/01 09:45:25;;;;;;;4.07;2.67;;;;;;;;;;6317822;28;20052;-84
2022/04/01 09:48:28;;;;;;;3.33;2.65;;;;;;;;;;6317085;28;20043;-84
2022/04/01 09:51:33;;;;;;;2.80;2.50;;;;;;;;;;6317138;28;20051;-85
2022/04/01 09:54:43;;;;;;;3.05;2.75;;;;;;;;;;6316937;28;20044;-84
2022/04/01 09:57:46;;;;;;;5.15;2.83;;;;;;;;;;6316689;28;20044;-85
2022/04/01 10:00:51;;;;;;;4.28;2.80;;;;;;;;;;6316115;28;20060;-84
2022/04/01 10:03:57;;;;;;;4.22;2.88;;;;;;;;;;6318341;28;20044;-84
2022/04/01 10:07:06;;;;;;;3.63;3.15;;;;;;;;;;6316756;28;20467;-85
2022/04/01 10:10:10;;;;;;;3.60;2.97;;;;;;;;;;6317168;28;20044;-86
2022/04/01 10:13:18;;;;;;;5.60;3.70;;;;;;;;;;6314824;28;20475;-85
2022/04/01 10:16:22;;;;;;;5.63;3.72;;;;;;;;;;6318758;28;20070;-85
2022/04/01 10:19:28;;;;;;;5.47;3.85;;;;;;;;;;6316306;28;20072;-86
2022/04/01 10:22:33;;;;;;;4.72;3.40;;;;;;;;;;6316311;28;20044;-85
2022/04/01 10:25:43;;;;;;;5.32;3.50;;;;;;;;;;6317413;28;20044;-85
2022/04/01 10:28:51;;;;;;;6.00;4.25;;;;;;;;;;6319652;28;20433;-84
2022/04/01 10:31:55;;;;;;;6.28;4.15;;;;;;;;;;6323036;28;20043;-84
2022/04/01 10:35:02;;;;;;;5.55;4.28;;;;;;;;;;6317498;28;20094;-86
2022/04/01 10:38:18;;;;;;;5.70;4.40;;;;;;;;;;6317753;28;20071;-85
2022/04/01 10:41:21;;;;;;;6.13;4.47;;;;;;;;;;6317026;28;20040;-84
2022/04/01 10:44:41;;;;;;;6.90;4.68;;;;;;;;;;6300718;28;20040;-84
2022/04/01 10:51:38;;;;;;;8.40;5.63;;;;;;;;;;6316909;28;20881;-84
2022/04/01 10:54:46;;;;;;;8.65;5.55;;;;;;;;;;6318037;28;20048;-84
2022/04/01 10:57:50;;;;;;;7.68;5.47;;;;;;;;;;6300071;28;20048;-84
2022/04/01 11:00:54;;;;;;;9.10;5.93;;;;;;;;;;6315558;28;20047;-83
2022/04/01 11:04:00;;;;;;;8.20;5.63;;;;;;;;;;6318465;28;20070;-84
2022/04/01 11:07:05;;;;;;;8.45;5.63;;;;;;;;;;6316641;28;20079;-84
2022/04/01 11:10:24;;;;;;;4.78;3.75;;;;;;;;;;6316948;28;20048;-83
2022/04/01 11:13:29;;;;;;;5.53;3.92;;;;;;;;;;6315648;28;20044;-84
2022/04/01 11:16:48;;;;;;;7.00;3.90;;;;;;;;;;6300387;28;20055;-83
2022/04/01 11:20:00;;;;;;;5.40;3.88;;;;;;;;;;6316407;28;20482;-84
2022/04/01 11:23:05;;;;;;;6.75;3.97;;;;;;;;;;6315919;28;20055;-84
2022/04/01 11:26:11;;;;;;;7.35;3.92;;;;;;;;;;6317936;28;20094;-84
2022/04/01 11:29:18;;;;;;;7.20;4.72;;;;;;;;;;6317175;28;20113;-83
2022/04/01 11:32:21;;;;;;;6.28;4.53;;;;;;;;;;6315696;28;20071;-83
2022/04/01 11:35:26;;;;;;;8.23;5.05;;;;;;;;;;6314844;28;20075;-84
2022/04/01 11:38:30;;;;;;;8.07;5.60;;;;;;;;;;6315511;28;20047;-83
2022/04/01 11:41:48;;;;;;;8.35;5.40;;;;;;;;;;6313944;28;20043;-83
2022/04/01 11:44:56;;;;;;;9.40;5.43;;;;;;;;;;6313887;28;20055;-83
2022/04/01 11:48:00;;;;;;;7.50;5.20;;;;;;;;;;6313790;28;20052;-83
2022/04/01 11:51:05;;;;;;;8.68;5.70;;;;;;;;;;6313952;28;20052;-84
2022/04/01 11:54:10;;;;;;;8.85;6.03;;;;;;;;;;6296870;28;20046;-83
2022/04/01 11:57:16;;;;;;;7.47;5.60;;;;;;;;;;6314871;28;20067;-83
2022/04/01 12:00:21;;;;;;;8.70;6.07;;;;;;;;;;6298998;28;20050;-83
2022/04/01 12:03:31;;;;;;;9.68;6.03;;;;;;;;;;6313131;28;20044;-83
2022/04/01 12:09:56;;;;;;;12.32;7.00;;;;;;;;;;6314390;28;20044;-85
2022/04/01 12:13:02;;;;;;;10.10;6.30;;;;;;;;;;6313967;28;20039;-83
2022/04/01 12:16:05;;;;;;;8.77;5.93;;;;;;;;;;6314926;28;20051;-84
2022/04/01 12:19:14;;;;;;;10.73;7.18;;;;;;;;;;6295510;28;20044;-84
2022/04/01 12:22:17;;;;;;;10.00;7.45;;;;;;;;;;6315224;28;20048;-82
2022/04/01 12:25:21;;;;;;;10.48;7.68;;;;;;;;;;6316234;28;20127;-84
2022/04/01 12:28:27;;;;;;;12.23;7.93;;;;;;;;;;6281535;28;20069;-82
2022/04/01 12:31:30;;;;;;;;;;;;;;;;;;6317928;28;20118;-83
2022/04/01 12:34:34;;;;;;;12.82;7.75;;;;;;;;;;6319950;28;19924;-83
2022/04/01 12:37:37;;;;;;;11.27;7.90;;;;;;;;;;6320609;28;20040;-82
2022/04/01 12:40:50;;;;;;;10.60;7.47;;;;;;;;;;6319368;28;20052;-84
2022/04/01 12:43:56;;;;;;;10.55;7.72;;;;;;;;;;6320013;28;20097;-84
2022/04/01 12:47:03;;;;;;;12.98;9.38;;;;;;;;;;6319895;28;20052;-82
2022/04/01 12:50:06;;;;;;;12.98;8.65;;;;;;;;;;6319455;28;20063;-81
2022/04/01 12:53:12;;;;;;;12.23;8.90;;;;;;;;;;6319366;28;20070;-81
2022/04/01 12:56:17;;;;;;;15.50;9.80;;;;;;;;;;6319528;28;20097;-82
2022/04/01 12:59:23;;;;;;;15.15;11.00;;;;;;;;;;6320791;28;20048;-82
2022/04/01 13:02:31;;;;;;;16.88;11.98;;;;;;;;;;6318630;28;20398;-81
2022/04/01 13:05:34;;;;;;;15.05;10.85;;;;;;;;;;6319174;28;20047;-80
2022/04/01 13:08:37;;;;;;;15.88;12.55;;;;;;;;;;6319228;28;20120;-80
2022/04/01 13:11:42;;;;;;;16.58;12.85;;;;;;;;;;6318267;28;20048;-79
2022/04/01 13:14:54;;;;;;;16.58;13.00;;;;;;;;;;6319414;28;20060;-81
2022/04/01 13:17:59;;;;;;;17.08;13.13;;;;;;;;;;6319042;28;20073;-81
2022/04/01 13:21:02;;;;;;;18.73;14.10;;;;;;;;;;6319547;28;20043;-80
2022/04/01 13:24:06;;;;;;;18.42;14.30;;;;;;;;;;6318701;28;20047;-79
2022/04/01 13:27:11;;;;;;;19.67;13.70;;;;;;;;;;6319204;28;20089;-79
2022/04/01 13:30:17;;;;;;;22.77;14.95;;;;;;;;;;6320711;28;20040;-80
2022/04/01 13:33:20;;;;;;;18.92;13.60;;;;;;;;;;6319481;28;20048;-80
2022/04/01 13:36:24;;;;;;;19.70;15.15;;;;;;;;;;6319904;28;20044;-79
2022/04/01 13:39:30;;;;;;;20.30;15.77;;;;;;;;;;6318266;28;20113;-80
2022/04/01 13:42:34;;;;;;;20.92;16.08;;;;;;;;;;6315754;28;20048;-78
2022/04/01 13:45:39;;;;;;;22.80;15.25;;;;;;;;;;6317645;28;20433;-79
2022/04/01 13:48:45;;;;;;;20.52;16.25;;;;;;;;;;6318352;28;20097;-78
2022/04/01 13:51:52;;;;;;;21.52;15.93;;;;;;;;;;6317961;28;20036;-77
2022/04/01 13:54:55;;;;;;;21.67;16.90;;;;;;;;;;6322288;28;20047;-77
2022/04/01 13:57:58;;;;;;;22.20;17.77;;;;;;;;;;6320608;28;20701;-77
2022/04/01 14:01:06;;;;;;;23.98;17.80;;;;;;;;;;6318641;28;20055;-77
2022/04/01 14:04:14;;;;;;;21.17;16.98;;;;;;;;;;6316560;28;20055;-78
2022/04/01 14:07:19;;;;;;;21.08;17.25;;;;;;;;;;6317731;28;20040;-77
2022/04/01 14:10:22;;;;;;;19.65;16.77;;;;;;;;;;6318605;28;20146;-77
2022/04/01 14:13:25;;;;;;;19.42;15.50;;;;;;;;;;6318316;28;20048;-77
2022/04/01 14:16:50;;;;;;;20.75;16.10;;;;;;;;;;6318075;28;20410;-78
2022/04/01 14:19:53;;;;;;;21.30;17.27;;;;;;;;;;6317927;28;20506;-79
2022/04/01 14:22:56;;;;;;;21.83;17.42;;;;;;;;;;6317703;28;20046;-76
2022/04/01 14:26:04;;;;;;;21.35;17.80;;;;;;;;;;6317950;28;20051;-76
2022/04/01 14:32:37;;;;;;;24.88;19.20;;;;;;;;;;6317772;28;20089;-78
2022/04/01 14:35:41;;;;;;;22.98;17.90;;;;;;;;;;6317350;28;20047;-77
2022/04/01 14:38:44;;;;;;;21.90;18.60;;;;;;;;;;6317018;28;20383;-78
2022/04/01 14:41:47;;;;;;;25.33;19.42;;;;;;;;;;6317188;28;20229;-78
2022/04/01 14:44:51;;;;;;;25.20;20.05;;;;;;;;;;6318897;28;20047;-77
2022/04/01 14:47:55;;;;;;;23.77;19.15;;;;;;;;;;6318045;28;20657;-77
2022/04/01 14:50:58;;;;;;;23.25;19.67;;;;;;;;;;6316393;28;20098;-77
2022/04/01 14:54:01;;;;;;;23.90;19.30;;;;;;;;;;6318054;28;20169;-78
2022/04/01 14:57:07;;;;;;;23.70;19.90;;;;;;;;;;6318392;28;20479;-77
2022/04/01 15:00:10;;;;;;;24.80;20.40;;;;;;;;;;6317008;28;20499;-76
2022/04/01 15:03:15;;;;;;;24.92;20.30;;;;;;;;;;6317384;28;20086;-77
2022/04/01 15:06:20;;;;;;;25.80;20.70;;;;;;;;;;6318412;28;20052;-77
2022/04/01 15:09:26;;;;;;;26.03;20.07;;;;;;;;;;6318631;28;20052;-77
2022/04/01 15:12:31;;;;;;;25.85;20.55;;;;;;;;;;6315703;28;20280;-78
2022/04/01 15:15:35;;;;;;;25.80;21.40;;;;;;;;;;6318224;28;20101;-76
2022/04/01 15:18:39;;;;;;;26.48;21.13;;;;;;;;;;6317869;28;20048;-77
2022/04/01 15:21:43;;;;;;;26.27;20.90;;;;;;;;;;6316574;28;20059;-76
2022/04/01 15:24:46;;;;;;;27.23;21.83;;;;;;;;;;6315962;28;20361;-77
2022/04/01 15:27:50;;;;;;;25.35;20.35;;;;;;;;;;6315932;28;20048;-77
2022/04/01 15:30:53;;;;;;;25.67;21.17;;;;;;;;;;6316192;28;20051;-76
2022/04/01 15:34:00;;;;;;;25.83;21.23;;;;;;;;;;6317166;28;20048;-76
2022/04/01 15:37:04;;;;;;;28.75;22.08;;;;;;;;;;6316212;28;20443;-76
2022/04/01 15:40:09;;;;;;;28.00;22.40;;;;;;;;;;6316060;28;20452;-76
2022/04/01 15:43:15;;;;;;;28.08;22.33;;;;;;;;;;6313623;28;20051;-74
2022/04/01 15:46:25;;;;;;;27.48;22.00;;;;;;;;;;6313545;28;20056;-77
2022/04/01 15:49:30;;;;;;;28.38;22.25;;;;;;;;;;6314749;28;20050;-75
2022/04/01 15:52:41;;;;;;;29.67;23.45;;;;;;;;;;6315413;28;20044;-76
2022/04/01 15:55:45;;;;;;;30.23;22.23;;;;;;;;;;6315718;28;20032;-77
2022/04/01 15:58:49;;;;;;;30.05;23.42;;;;;;;;;;6316099;28;20059;-76
2022/04/01 16:01:52;;;;;;;29.95;23.42;;;;;;;;;;6315091;28;20051;-77
2022/04/01 16:05:05;;;;;;;26.83;22.17;;;;;;;;;;6312454;28;20097;-77
2022/04/01 16:08:09;;;;;;;30.63;23.42;;;;;;;;;;6314705;28;20052;-77
2022/04/01 16:11:12;;;;;;;32.55;24.15;;;;;;;;;;6314554;28;20051;-76
2022/04/01 16:14:16;;;;;;;30.63;24.15;;;;;;;;;;6314798;28;20054;-76
2022/04/01 16:17:39;;;;;;;34.90;27.30;;;;;;;;;;6313104;28;20055;-76
2022/04/01 16:20:43;;;;;;;33.28;25.25;;;;;;;;;;6316314;28;20225;-76
2022/04/01 16:23:46;;;;;;;31.48;25.77;;;;;;;;;;6316417;28;20066;-76
2022/04/01 16:26:55;;;;;;;31.88;24.73;;;;;;;;;;6316928;28;20048;-76
2022/04/01 16:30:00;;;;;;;30.92;24.63;;;;;;;;;;6316765;28;20052;-76
2022/04/01 16:33:06;;;;;;;35.15;26.13;;;;;;;;;;6315320;28;20383;-76
2022/04/01 16:36:11;;;;;;;32.83;26.00;;;;;;;;;;6317012;28;20047;-75
2022/04/01 16:39:14;;;;;;;32.17;25.13;;;;;;;;;;6315627;28;20117;-76
2022/04/01 16:42:17;;;;;;;32.85;24.92;;;;;;;;;;6314765;28;20485;-76
2022/04/01 16:45:20;;;;;;;32.75;25.67;;;;;;;;;;6316591;28;20086;-76
2022/04/01 16:48:24;;;;;;;33.40;25.73;;;;;;;;;;6316382;28;20044;-75
2022/04/01 16:51:31;;;;;;;33.42;26.48;;;;;;;;;;6317060;28;20040;-76
2022/04/01 16:54:34;;;;;;;31.98;25.60;;;;;;;;;;6314662;28;20048;-75
2022/04/01 16:57:38;;;;;;;32.13;25.27;;;;;;;;;;6315981;28;20044;-75
2022/04/01 17:00:41;;;;;;;33.97;23.90;;;;;;;;;;6315600;28;20048;-75
2022/04/01 17:03:44;;;;;;;33.78;24.13;;;;;;;;;;6315828;28;20177;-74
2022/04/01 17:13:30;;;;;;;68.72;43.90;;;;;;;;;;6316028;28;20478;-75
2022/04/01 17:16:34;;;;;;;35.03;25.92;;;;;;;;;;6319851;28;20047;-74
2022/04/01 17:19:38;;;;;;;33.03;24.58;;;;;;;;;;6321537;28;20051;-75
2022/04/01 17:22:49;;;;;;;33.17;24.85;;;;;;;;;;6316531;28;20051;-75
2022/04/01 17:25:52;;;;;;;33.57;25.17;;;;;;;;;;6319971;28;20048;-75
2022/04/01 17:28:55;;;;;;;34.50;25.90;;;;;;;;;;6320684;28;20309;-75
2022/04/01 17:32:03;;;;;;;34.00;26.05;;;;;;;;;;6316956;28;20051;-75
2022/04/01 17:35:07;;;;;;;36.60;25.60;;;;;;;;;;6317240;28;20047;-75
2022/04/01 17:38:12;;;;;;;34.83;26.33;;;;;;;;;;6315503;28;20605;-75
2022/04/01 17:41:16;;;;;;;34.92;26.35;;;;;;;;;;6314987;28;20052;-75
2022/04/01 17:44:19;;;;;;;35.15;25.92;;;;;;;;;;6314443;28;20048;-75
2022/04/01 17:47:23;;;;;;;35.50;24.58;;;;;;;;;;6318704;28;20055;-75
2022/04/01 17:50:31;;;;;;;;;;;;;;;;;;6319416;28;20043;-74
2022/04/01 17:53:37;;;;;;;35.45;25.60;;;;;;;;;;6318584;28;19919;-74
2022/04/01 17:56:45;;;;;;;35.90;26.63;;;;;;;;;;6317461;28;20120;-74
2022/04/01 17:59:50;;;;;;;37.20;26.83;;;;;;;;;;6318880;28;20115;-76
2022/04/01 18:02:54;;;;;;;36.28;26.10;;;;;;;;;;6315823;28;20042;-76
2022/04/01 18:05:58;;;;;;;36.15;26.52;;;;;;;;;;6315862;28;20043;-76
2022/04/01 18:09:08;;;;;;;34.85;26.20;;;;;;;;;;6316933;28;20609;-76
2022/04/01 18:12:13;;;;;;;34.92;25.52;;;;;;;;;;6315102;28;20483;-75
2022/04/01 18:15:16;;;;;;;36.15;25.30;;;;;;;;;;6317880;28;20048;-76
2022/04/01 18:18:20;;;;;;;35.85;25.75;;;;;;;;;;6316353;28;20055;-76
2022/04/01 18:21:24;;;;;;;36.35;26.38;;;;;;;;;;6319187;28;20109;-76
2022/04/01 18:25:10;;;;;;;32.10;22.38;;;;;;;;;;6319285;28;20511;-75
2022/04/01 18:28:00;;;;;;;29.40;22.13;;;;;;;;;;6316756;28;20040;-76
2022/04/01 18:31:07;;;;;;;33.50;23.42;;;;;;;;;;6316589;28;20400;-75
2022/04/01 18:34:12;;;;;;;32.63;22.58;;;;;;;;;;6316256;28;20040;-76
2022/04/01 18:37:16;;;;;;;30.87;21.17;;;;;;;;;;6317847;28;20051;-75
2022/04/01 18:40:21;;;;;;;28.33;20.73;;;;;;;;;;6318140;28;20056;-76
2022/04/01 18:43:28;;;;;;;31.55;22.20;;;;;;;;;;6318550;28;20863;-75